00:45
Airports
History
Links
Donate
Help keep this website running!
PayPal
Bitcoin
This page is community maintained. The information is intended for PC simulator navigation or reference.
Always use approved charts for navigation.
ETWM
Meppen
Meppen (ETWM)
Meppen, Niedersachsen, Germany (49716)
(C)
Lat/Lng:52° 43' 19" N / 7° 19' 38.98" E
52.721944 / 7.327494
Elevation:68'ft / 21mMSL
ID / ICAO:ETWM
Runways:1
Longest:6-24
Grass 177m / 581ft
Controlled:Yes
Beacon:White-Green
Nearby Weather00:20 GMT 2017-09-25
Nearby weather at ETHE, RHEINE BENTLAGE located 29.9 nautical miles from ETWM
Altimeter: 30.21
Visibility: statute miles
Wind: 3 knots (from 060°)
Temp: 14°c / 57°f
Humidity: 93.7%

METAR: ETHE 250020Z AUTO 06003KT //// // ////// 14/13 Q1023 ///

(Powered by phpweather)
Airport Radio Frequencies
Tower: 122.1
Nearby VORs <50NM
Nearby NDBs
Runway 6 / 24
Dimensions:177 x 14.9m 581' x 49'ft
Surface:Grass
Runway 6 [A]Runway 24 [B]
Heading:060°TH 240°TH
Lat:
Lng:
52° 43' 17.52"N
7° 19' 34.74"E
52° 43' 20.48"N
7° 19' 43.22"E
User Notes and Comments
52° 43' 19" N / 7° 19' 38.98" E
Distance To
Airport ID:
Nearby Airports
(C) Nordhorn-Lingen 19.1 NM
EDWN SSW 198°
(C) RHEINE BENTLAGE 29.9 NM
ETHE ( WX ) S 175°
(C) Rheine-Eschendorf 31.6 NM
EDXE SSE 167°
(C) Varrelbusch 32.5 NM
EDWU ENE 66°
(C) Hoogeveen 33.6 NM
EHHO W 270°
(C) Achmer 34.2 NM
EDXA SE 134°
4 Oostwold 35.3 NM
EHOW NNW 339°
VFR Chart
Flight Planning at SkyVector.com